Airfield :
LOGIN :

Register | Disclaimer

   EN    FR    IT 

 










Legend :    VFR   Marginal VFR   IFR   Intensive IFR   Very Intensive IFR
Visi :
Ceiling :
>= 8 km
>= 3000ft
5 to 8 km
1000 to 3000 ft
1500m to 5 km
500 to 1000 ft
800 to 1500m
200 to 500 ft
< 800m
< 200 ft
Symbols :   Thunderstorms  Fog  Heavy snow  Heavy precipitations  Wind > 20 kt
SIGMETs :     Misc.  Thunderstorms  Icing  Turbulence  Mountain Waves  Volcanic Ashes






- Airport Elevation : 286 ft
- IATA code : TRF


ENTO - Sandefjord , Torp

CURRENT METAR :
  • 061820Z 23007KT 9999 FEW020 SCT060 12/10 Q0990 NOSIG

EXPIRED METARs :
  • 061750Z 24006KT 9999 -DZ FEW012 SCT210 12/10 Q0990 NOSIG
  • 061720Z 23008KT 9999 -DZ SCT046 BKN190 12/09 Q0990 TEMPO SHRA
  • 061650Z 22010KT 9999 SCT049 BKN059 12/09 Q0990 TEMPO SHRA
  • 061620Z 22010KT 9000 RA BKN019 12/10 Q0989 TEMPO -SHRA
  • 061550Z 23014KT 9999 -RA BKN020 12/09 Q0989

TAF TAF ENTO
Valid from the 06 at 18:00 until the 07 at 18:00 UTC


0618/0718 22012KT 9999 -RA FEW012 SCT030
TEMPO 0618/0709 RA SHRA SCT030CB BKN040
TEMPO 0709/0715 20015G25KT



MET'MAP, your aeronautical weather chart ! - Copyright ORBIFLY December 2007 - Disclaimer

ORBIFLY MET'MAP TEAM :

Programming & Development : Alexandra Zaïnal
Concept & original design : Baudouin d'Aumeries
Assistance for programming : Marc-Olivier Méhu
Technical & hardware support : Manuel Goepfert

Contact : metmap@orbifly.com




SOURCES & CREDITS :

   NOAA